Estación Meteorológica Peña el Pijo (Robertgarden) [ 04/19/21 04:01:24 CEST ]

Fecha Hora Presion(HPa) Temp (°C) Humedad % Rocio (°C) Viento ( m/s) Direccion Lluvia 1Hora(mm) Lluvia 24H(mm) LLuvia Total(mm)
2021-Apr-10 01:09:59 1006.400 8.8 87 6.8 - N     89.61
2021-Apr-10 02:09:42 1005.900 8.5 87 6.5 - N     89.61
2021-Apr-10 03:09:36 1005.400 8.4 88 6.5 - N     89.61
2021-Apr-10 04:09:39 1004.500 8.1 89 6.4 - N     89.61
2021-Apr-10 05:09:46 1004.100 7.9 89 6.2 - N     89.61
2021-Apr-10 06:09:42 1003.600 7.9 88 6.1 - N     89.61
2021-Apr-10 07:09:40 1003.400 8.1 88 6.2 - N     89.61
2021-Apr-10 08:09:53 1003.700 8.4 87 6.4 - N     89.61
2021-Apr-10 09:09:52 1004.300 8.3 88 6.4 - N     89.61
2021-Apr-10 10:09:23 1004.400 10.7 82 7.7 - N     89.61
2021-Apr-10 11:09:24 1004.200 16.8 59 8.8 - N     89.61
2021-Apr-10 12:09:32 1004.000 18.8 54 9.3 - N     89.61
2021-Apr-10 13:09:50 1003.400 16.6 60 8.8 - N     89.61
2021-Apr-10 14:09:46 1003.000 16.9 62 9.6 - N     89.61
2021-Apr-10 15:09:55 1002.500 19.4 50 8.8 - N     89.61
2021-Apr-10 16:09:47 1001.800 17.2 56 8.3 - N     89.61
2021-Apr-10 17:09:25 1001.500 19.9 50 9.2 - N     89.61
2021-Apr-10 18:09:32 1001.500 17.9 47 6.3 - N     89.61
2021-Apr-10 19:09:10 1001.700 14.8 69 9.2 - N     89.61
2021-Apr-10 20:09:24 1002.000 11.4 92 10.1 - N     89.61
2021-Apr-10 21:09:16 1002.900 10.8 94 9.8 - N     89.61
2021-Apr-10 22:09:44 1003.600 9.9 94 8.9 - N     89.61
2021-Apr-10 23:09:49 1004.000 8.4 95 7.6 - N     89.61

Temperatura Máxima:19°    Temperatura Mínima:
Presión Máxima:1006.400 Hpa    Presión Mínima:1001.500 Hpa


Volver